sensor_id;sensor_type;location;lat;lon;timestamp;P1;durP1;ratioP1;P2;durP2;ratioP2
29576;SDS011;16509;53.862;10.672;2023-02-22T00:02:25;13.68;;;3.35;;
29576;SDS011;16509;53.862;10.672;2023-02-22T00:04:53;16.35;;;3.97;;
29576;SDS011;16509;53.862;10.672;2023-02-22T00:07:19;16.60;;;3.78;;
29576;SDS011;16509;53.862;10.672;2023-02-22T00:09:47;17.25;;;4.55;;
29576;SDS011;16509;53.862;10.672;2023-02-22T00:12:13;20.05;;;4.03;;
29576;SDS011;16509;53.862;10.672;2023-02-22T00:14:39;15.68;;;3.85;;
29576;SDS011;16509;53.862;10.672;2023-02-22T00:17:06;15.13;;;5.07;;
29576;SDS011;16509;53.862;10.672;2023-02-22T00:19:32;14.18;;;4.32;;
29576;SDS011;16509;53.862;10.672;2023-02-22T00:21:58;20.08;;;4.22;;
29576;SDS011;16509;53.862;10.672;2023-02-22T00:24:24;13.20;;;4.68;;
29576;SDS011;16509;53.862;10.672;2023-02-22T00:26:51;14.93;;;4.53;;
29576;SDS011;16509;53.862;10.672;2023-02-22T00:29:19;21.10;;;4.97;;
29576;SDS011;16509;53.862;10.672;2023-02-22T00:31:46;15.63;;;5.05;;
29576;SDS011;16509;53.862;10.672;2023-02-22T00:34:12;15.10;;;4.55;;
29576;SDS011;16509;53.862;10.672;2023-02-22T00:36:46;13.00;;;5.30;;
29576;SDS011;16509;53.862;10.672;2023-02-22T00:39:12;16.85;;;5.22;;
29576;SDS011;16509;53.862;10.672;2023-02-22T00:41:38;20.15;;;5.75;;
29576;SDS011;16509;53.862;10.672;2023-02-22T00:44:04;14.82;;;4.68;;
29576;SDS011;16509;53.862;10.672;2023-02-22T00:46:30;23.50;;;5.22;;
29576;SDS011;16509;53.862;10.672;2023-02-22T00:48:56;20.33;;;5.80;;
29576;SDS011;16509;53.862;10.672;2023-02-22T00:51:26;16.83;;;4.97;;
29576;SDS011;16509;53.862;10.672;2023-02-22T00:53:52;13.10;;;4.40;;
29576;SDS011;16509;53.862;10.672;2023-02-22T00:56:18;19.02;;;4.53;;
29576;SDS011;16509;53.862;10.672;2023-02-22T00:58:45;20.20;;;4.65;;
29576;SDS011;16509;53.862;10.672;2023-02-22T01:01:11;20.35;;;4.60;;
29576;SDS011;16509;53.862;10.672;2023-02-22T01:03:40;16.67;;;5.20;;
29576;SDS011;16509;53.862;10.672;2023-02-22T01:06:06;18.52;;;5.38;;
29576;SDS011;16509;53.862;10.672;2023-02-22T01:08:32;19.80;;;5.07;;
29576;SDS011;16509;53.862;10.672;2023-02-22T01:10:58;16.98;;;5.30;;
29576;SDS011;16509;53.862;10.672;2023-02-22T01:13:24;20.38;;;5.38;;
29576;SDS011;16509;53.862;10.672;2023-02-22T01:15:51;14.50;;;4.90;;
29576;SDS011;16509;53.862;10.672;2023-02-22T01:18:17;14.48;;;5.13;;
29576;SDS011;16509;53.862;10.672;2023-02-22T01:20:46;19.45;;;5.38;;
29576;SDS011;16509;53.862;10.672;2023-02-22T01:23:12;20.27;;;5.43;;
29576;SDS011;16509;53.862;10.672;2023-02-22T01:25:41;13.10;;;4.88;;
29576;SDS011;16509;53.862;10.672;2023-02-22T01:28:08;18.48;;;5.47;;
29576;SDS011;16509;53.862;10.672;2023-02-22T01:30:34;12.13;;;4.97;;
29576;SDS011;16509;53.862;10.672;2023-02-22T01:33:02;20.13;;;6.38;;
29576;SDS011;16509;53.862;10.672;2023-02-22T01:35:29;25.42;;;5.13;;
29576;SDS011;16509;53.862;10.672;2023-02-22T01:37:56;16.70;;;6.10;;
29576;SDS011;16509;53.862;10.672;2023-02-22T01:40:26;22.67;;;5.90;;
29576;SDS011;16509;53.862;10.672;2023-02-22T01:42:54;13.15;;;5.25;;
29576;SDS011;16509;53.862;10.672;2023-02-22T01:48:01;26.38;;;5.85;;
29576;SDS011;16509;53.862;10.672;2023-02-22T01:50:33;32.00;;;5.95;;
29576;SDS011;16509;53.862;10.672;2023-02-22T01:53:01;18.65;;;5.13;;
29576;SDS011;16509;53.862;10.672;2023-02-22T01:55:27;23.35;;;5.75;;
29576;SDS011;16509;53.862;10.672;2023-02-22T01:57:53;13.40;;;5.80;;
29576;SDS011;16509;53.862;10.672;2023-02-22T02:00:20;15.00;;;5.05;;
29576;SDS011;16509;53.862;10.672;2023-02-22T02:02:53;28.92;;;6.75;;
29576;SDS011;16509;53.862;10.672;2023-02-22T02:05:24;21.42;;;5.68;;
29576;SDS011;16509;53.862;10.672;2023-02-22T02:07:51;24.08;;;5.78;;
29576;SDS011;16509;53.862;10.672;2023-02-22T02:10:17;13.13;;;5.25;;
29576;SDS011;16509;53.862;10.672;2023-02-22T02:12:44;15.10;;;5.15;;
29576;SDS011;16509;53.862;10.672;2023-02-22T02:15:27;25.85;;;5.60;;
29576;SDS011;16509;53.862;10.672;2023-02-22T02:17:56;18.75;;;5.75;;
29576;SDS011;16509;53.862;10.672;2023-02-22T02:31:02;17.17;;;5.28;;
29576;SDS011;16509;53.862;10.672;2023-02-22T02:33:34;16.67;;;4.63;;
29576;SDS011;16509;53.862;10.672;2023-02-22T02:46:38;20.15;;;4.95;;
29576;SDS011;16509;53.862;10.672;2023-02-22T02:49:09;13.82;;;4.47;;
29576;SDS011;16509;53.862;10.672;2023-02-22T02:51:37;13.82;;;3.90;;
29576;SDS011;16509;53.862;10.672;2023-02-22T02:54:04;14.07;;;3.70;;
29576;SDS011;16509;53.862;10.672;2023-02-22T02:56:31;21.23;;;4.10;;
29576;SDS011;16509;53.862;10.672;2023-02-22T02:58:58;12.65;;;4.45;;
29576;SDS011;16509;53.862;10.672;2023-02-22T03:01:39;12.10;;;4.45;;
29576;SDS011;16509;53.862;10.672;2023-02-22T03:17:42;16.90;;;3.50;;
29576;SDS011;16509;53.862;10.672;2023-02-22T03:20:16;15.77;;;4.20;;
29576;SDS011;16509;53.862;10.672;2023-02-22T03:22:49;14.10;;;4.20;;
29576;SDS011;16509;53.862;10.672;2023-02-22T03:25:21;14.13;;;4.95;;
29576;SDS011;16509;53.862;10.672;2023-02-22T03:27:50;13.20;;;4.38;;
29576;SDS011;16509;53.862;10.672;2023-02-22T03:30:30;18.90;;;4.22;;
29576;SDS011;16509;53.862;10.672;2023-02-22T03:32:59;26.98;;;4.07;;
29576;SDS011;16509;53.862;10.672;2023-02-22T03:35:28;11.15;;;4.32;;
29576;SDS011;16509;53.862;10.672;2023-02-22T03:37:56;22.33;;;4.93;;
29576;SDS011;16509;53.862;10.672;2023-02-22T03:40:30;18.20;;;4.00;;
29576;SDS011;16509;53.862;10.672;2023-02-22T03:43:06;9.15;;;3.38;;
29576;SDS011;16509;53.862;10.672;2023-02-22T03:45:34;16.88;;;4.30;;
29576;SDS011;16509;53.862;10.672;2023-02-22T03:48:03;21.92;;;4.53;;
29576;SDS011;16509;53.862;10.672;2023-02-22T03:50:32;20.27;;;4.65;;
29576;SDS011;16509;53.862;10.672;2023-02-22T03:52:59;13.30;;;4.15;;
29576;SDS011;16509;53.862;10.672;2023-02-22T03:55:26;12.50;;;3.70;;
29576;SDS011;16509;53.862;10.672;2023-02-22T03:57:56;20.95;;;4.10;;
29576;SDS011;16509;53.862;10.672;2023-02-22T04:00:25;12.35;;;3.80;;
29576;SDS011;16509;53.862;10.672;2023-02-22T04:02:51;11.00;;;4.45;;
29576;SDS011;16509;53.862;10.672;2023-02-22T04:05:17;14.30;;;3.63;;
29576;SDS011;16509;53.862;10.672;2023-02-22T04:07:49;16.20;;;4.45;;
29576;SDS011;16509;53.862;10.672;2023-02-22T04:10:15;12.02;;;3.90;;
29576;SDS011;16509;53.862;10.672;2023-02-22T04:12:41;21.00;;;3.83;;
29576;SDS011;16509;53.862;10.672;2023-02-22T04:15:07;11.77;;;3.97;;
29576;SDS011;16509;53.862;10.672;2023-02-22T04:17:34;14.93;;;4.22;;
29576;SDS011;16509;53.862;10.672;2023-02-22T04:20:12;8.73;;;4.05;;
29576;SDS011;16509;53.862;10.672;2023-02-22T04:22:38;8.48;;;3.80;;
29576;SDS011;16509;53.862;10.672;2023-02-22T04:25:05;16.45;;;4.13;;
29576;SDS011;16509;53.862;10.672;2023-02-22T04:27:32;10.25;;;3.72;;
29576;SDS011;16509;53.862;10.672;2023-02-22T04:29:58;18.73;;;4.30;;
29576;SDS011;16509;53.862;10.672;2023-02-22T04:32:24;9.75;;;3.70;;
29576;SDS011;16509;53.862;10.672;2023-02-22T04:34:51;11.35;;;4.07;;
29576;SDS011;16509;53.862;10.672;2023-02-22T04:37:17;19.17;;;4.00;;
29576;SDS011;16509;53.862;10.672;2023-02-22T04:39:43;10.18;;;3.53;;
29576;SDS011;16509;53.862;10.672;2023-02-22T04:42:09;17.00;;;4.30;;
29576;SDS011;16509;53.862;10.672;2023-02-22T04:44:35;16.20;;;3.90;;
29576;SDS011;16509;53.862;10.672;2023-02-22T04:47:02;15.65;;;3.63;;
29576;SDS011;16509;53.862;10.672;2023-02-22T04:49:28;18.13;;;4.63;;
29576;SDS011;16509;53.862;10.672;2023-02-22T04:51:54;14.93;;;4.00;;
29576;SDS011;16509;53.862;10.672;2023-02-22T04:54:20;18.52;;;5.07;;
29576;SDS011;16509;53.862;10.672;2023-02-22T04:56:46;9.95;;;3.47;;
29576;SDS011;16509;53.862;10.672;2023-02-22T04:59:12;15.48;;;4.28;;
29576;SDS011;16509;53.862;10.672;2023-02-22T05:01:38;20.42;;;4.13;;
29576;SDS011;16509;53.862;10.672;2023-02-22T05:04:05;23.38;;;4.43;;
29576;SDS011;16509;53.862;10.672;2023-02-22T05:06:32;12.18;;;3.80;;
29576;SDS011;16509;53.862;10.672;2023-02-22T05:08:58;13.20;;;4.00;;
29576;SDS011;16509;53.862;10.672;2023-02-22T05:11:26;18.75;;;4.57;;
29576;SDS011;16509;53.862;10.672;2023-02-22T05:13:53;15.77;;;3.55;;
29576;SDS011;16509;53.862;10.672;2023-02-22T05:16:19;16.70;;;4.32;;
29576;SDS011;16509;53.862;10.672;2023-02-22T05:18:45;15.82;;;3.72;;
29576;SDS011;16509;53.862;10.672;2023-02-22T05:21:11;15.63;;;3.80;;
29576;SDS011;16509;53.862;10.672;2023-02-22T05:23:38;11.02;;;3.58;;
29576;SDS011;16509;53.862;10.672;2023-02-22T05:26:04;12.90;;;3.42;;
29576;SDS011;16509;53.862;10.672;2023-02-22T05:28:30;21.65;;;3.88;;
29576;SDS011;16509;53.862;10.672;2023-02-22T05:30:58;12.75;;;3.35;;
29576;SDS011;16509;53.862;10.672;2023-02-22T05:33:26;12.52;;;3.80;;
29576;SDS011;16509;53.862;10.672;2023-02-22T05:35:52;10.40;;;3.65;;
29576;SDS011;16509;53.862;10.672;2023-02-22T05:38:20;14.88;;;3.63;;
29576;SDS011;16509;53.862;10.672;2023-02-22T05:40:47;17.83;;;3.55;;
29576;SDS011;16509;53.862;10.672;2023-02-22T05:43:13;14.35;;;4.20;;
29576;SDS011;16509;53.862;10.672;2023-02-22T05:45:39;15.88;;;4.32;;
29576;SDS011;16509;53.862;10.672;2023-02-22T05:48:06;9.25;;;3.63;;
29576;SDS011;16509;53.862;10.672;2023-02-22T05:50:32;14.85;;;3.72;;
29576;SDS011;16509;53.862;10.672;2023-02-22T05:52:58;18.15;;;3.33;;
29576;SDS011;16509;53.862;10.672;2023-02-22T05:55:24;13.48;;;3.75;;
29576;SDS011;16509;53.862;10.672;2023-02-22T05:57:51;13.93;;;3.53;;
29576;SDS011;16509;53.862;10.672;2023-02-22T06:02:52;15.43;;;3.97;;
29576;SDS011;16509;53.862;10.672;2023-02-22T06:05:18;15.50;;;4.15;;
29576;SDS011;16509;53.862;10.672;2023-02-22T06:07:44;23.58;;;4.57;;
29576;SDS011;16509;53.862;10.672;2023-02-22T06:10:10;18.27;;;4.30;;
29576;SDS011;16509;53.862;10.672;2023-02-22T06:12:38;8.75;;;3.35;;
29576;SDS011;16509;53.862;10.672;2023-02-22T06:15:04;14.27;;;3.97;;
29576;SDS011;16509;53.862;10.672;2023-02-22T06:17:30;21.40;;;4.38;;
29576;SDS011;16509;53.862;10.672;2023-02-22T06:19:56;8.73;;;3.05;;
29576;SDS011;16509;53.862;10.672;2023-02-22T06:22:23;9.02;;;3.50;;
29576;SDS011;16509;53.862;10.672;2023-02-22T06:24:49;10.27;;;3.45;;
29576;SDS011;16509;53.862;10.672;2023-02-22T06:27:15;13.65;;;3.35;;
29576;SDS011;16509;53.862;10.672;2023-02-22T06:29:43;13.15;;;3.03;;
29576;SDS011;16509;53.862;10.672;2023-02-22T06:32:10;14.05;;;2.90;;
29576;SDS011;16509;53.862;10.672;2023-02-22T06:34:37;17.70;;;3.70;;
29576;SDS011;16509;53.862;10.672;2023-02-22T06:37:06;18.00;;;4.13;;
29576;SDS011;16509;53.862;10.672;2023-02-22T06:39:33;12.48;;;3.22;;
29576;SDS011;16509;53.862;10.672;2023-02-22T06:42:02;13.70;;;3.95;;
29576;SDS011;16509;53.862;10.672;2023-02-22T06:44:28;20.48;;;3.25;;
29576;SDS011;16509;53.862;10.672;2023-02-22T06:46:57;22.20;;;3.95;;
29576;SDS011;16509;53.862;10.672;2023-02-22T06:49:24;15.88;;;3.97;;
29576;SDS011;16509;53.862;10.672;2023-02-22T06:51:51;24.95;;;4.25;;
29576;SDS011;16509;53.862;10.672;2023-02-22T06:54:18;15.43;;;4.40;;
29576;SDS011;16509;53.862;10.672;2023-02-22T06:56:44;10.68;;;3.00;;
29576;SDS011;16509;53.862;10.672;2023-02-22T06:59:13;14.38;;;4.13;;
29576;SDS011;16509;53.862;10.672;2023-02-22T07:01:39;12.73;;;3.85;;
29576;SDS011;16509;53.862;10.672;2023-02-22T07:04:06;13.10;;;3.78;;
29576;SDS011;16509;53.862;10.672;2023-02-22T07:06:32;16.73;;;3.67;;
29576;SDS011;16509;53.862;10.672;2023-02-22T07:09:01;24.80;;;4.00;;
29576;SDS011;16509;53.862;10.672;2023-02-22T07:11:28;18.27;;;4.13;;
29576;SDS011;16509;53.862;10.672;2023-02-22T07:13:54;15.98;;;4.90;;
29576;SDS011;16509;53.862;10.672;2023-02-22T07:16:20;13.05;;;4.30;;
29576;SDS011;16509;53.862;10.672;2023-02-22T07:18:46;11.20;;;3.80;;
29576;SDS011;16509;53.862;10.672;2023-02-22T07:21:12;15.13;;;4.20;;
29576;SDS011;16509;53.862;10.672;2023-02-22T07:23:38;18.58;;;4.22;;
29576;SDS011;16509;53.862;10.672;2023-02-22T07:26:04;13.68;;;4.68;;
29576;SDS011;16509;53.862;10.672;2023-02-22T07:28:31;16.35;;;3.95;;
29576;SDS011;16509;53.862;10.672;2023-02-22T07:30:57;14.80;;;3.90;;
29576;SDS011;16509;53.862;10.672;2023-02-22T07:33:23;15.18;;;4.28;;
29576;SDS011;16509;53.862;10.672;2023-02-22T07:35:50;12.85;;;3.97;;
29576;SDS011;16509;53.862;10.672;2023-02-22T07:38:17;19.52;;;4.45;;
29576;SDS011;16509;53.862;10.672;2023-02-22T07:40:44;15.38;;;4.40;;
29576;SDS011;16509;53.862;10.672;2023-02-22T07:45:43;24.60;;;4.30;;
29576;SDS011;16509;53.862;10.672;2023-02-22T07:48:10;18.35;;;4.18;;
29576;SDS011;16509;53.862;10.672;2023-02-22T07:50:36;19.92;;;4.28;;
29576;SDS011;16509;53.862;10.672;2023-02-22T07:53:06;14.68;;;4.28;;
29576;SDS011;16509;53.862;10.672;2023-02-22T07:55:32;18.13;;;5.05;;
29576;SDS011;16509;53.862;10.672;2023-02-22T07:58:00;11.57;;;3.22;;
29576;SDS011;16509;53.862;10.672;2023-02-22T08:00:29;16.10;;;4.72;;
29576;SDS011;16509;53.862;10.672;2023-02-22T08:02:59;14.07;;;4.18;;
29576;SDS011;16509;53.862;10.672;2023-02-22T08:05:26;21.02;;;4.18;;
29576;SDS011;16509;53.862;10.672;2023-02-22T08:07:52;14.90;;;4.75;;
29576;SDS011;16509;53.862;10.672;2023-02-22T08:10:19;15.45;;;3.65;;
29576;SDS011;16509;53.862;10.672;2023-02-22T08:12:46;14.95;;;4.50;;
29576;SDS011;16509;53.862;10.672;2023-02-22T08:15:26;22.88;;;3.78;;
29576;SDS011;16509;53.862;10.672;2023-02-22T08:17:53;18.67;;;4.22;;
29576;SDS011;16509;53.862;10.672;2023-02-22T08:20:20;15.68;;;4.63;;
29576;SDS011;16509;53.862;10.672;2023-02-22T08:22:48;19.60;;;4.22;;
29576;SDS011;16509;53.862;10.672;2023-02-22T08:25:18;12.60;;;3.78;;
29576;SDS011;16509;53.862;10.672;2023-02-22T08:27:45;12.93;;;3.55;;
29576;SDS011;16509;53.862;10.672;2023-02-22T08:30:15;11.90;;;4.25;;
29576;SDS011;16509;53.862;10.672;2023-02-22T08:32:43;15.00;;;4.40;;
29576;SDS011;16509;53.862;10.672;2023-02-22T08:35:12;17.17;;;5.00;;
29576;SDS011;16509;53.862;10.672;2023-02-22T08:37:43;12.50;;;4.63;;
29576;SDS011;16509;53.862;10.672;2023-02-22T08:40:12;19.80;;;4.28;;
29576;SDS011;16509;53.862;10.672;2023-02-22T08:42:41;22.90;;;6.00;;
29576;SDS011;16509;53.862;10.672;2023-02-22T08:45:07;16.33;;;4.10;;
29576;SDS011;16509;53.862;10.672;2023-02-22T08:47:40;12.93;;;4.30;;
29576;SDS011;16509;53.862;10.672;2023-02-22T08:50:07;11.75;;;4.03;;
29576;SDS011;16509;53.862;10.672;2023-02-22T08:52:34;12.73;;;3.50;;
29576;SDS011;16509;53.862;10.672;2023-02-22T08:55:00;16.35;;;4.55;;
29576;SDS011;16509;53.862;10.672;2023-02-22T08:57:26;10.15;;;4.82;;
29576;SDS011;16509;53.862;10.672;2023-02-22T08:59:52;12.45;;;4.35;;
29576;SDS011;16509;53.862;10.672;2023-02-22T09:02:19;15.30;;;4.85;;
29576;SDS011;16509;53.862;10.672;2023-02-22T09:04:46;10.20;;;3.83;;
29576;SDS011;16509;53.862;10.672;2023-02-22T09:07:14;23.10;;;5.18;;
29576;SDS011;16509;53.862;10.672;2023-02-22T09:09:43;12.82;;;4.07;;
29576;SDS011;16509;53.862;10.672;2023-02-22T09:12:10;14.75;;;4.25;;
29576;SDS011;16509;53.862;10.672;2023-02-22T09:14:36;13.63;;;4.57;;
29576;SDS011;16509;53.862;10.672;2023-02-22T09:17:03;13.45;;;4.75;;
29576;SDS011;16509;53.862;10.672;2023-02-22T09:19:30;17.02;;;4.70;;
29576;SDS011;16509;53.862;10.672;2023-02-22T09:21:59;23.85;;;5.43;;
29576;SDS011;16509;53.862;10.672;2023-02-22T09:24:25;22.25;;;4.88;;
29576;SDS011;16509;53.862;10.672;2023-02-22T09:26:51;24.55;;;5.47;;
29576;SDS011;16509;53.862;10.672;2023-02-22T09:29:20;16.20;;;5.13;;
29576;SDS011;16509;53.862;10.672;2023-02-22T09:31:47;16.25;;;5.18;;
29576;SDS011;16509;53.862;10.672;2023-02-22T09:34:14;24.35;;;5.95;;
29576;SDS011;16509;53.862;10.672;2023-02-22T09:36:41;18.55;;;5.85;;
29576;SDS011;16509;53.862;10.672;2023-02-22T09:39:07;12.77;;;4.90;;
29576;SDS011;16509;53.862;10.672;2023-02-22T09:47:06;15.73;;;5.28;;
29576;SDS011;16509;53.862;10.672;2023-02-22T09:49:39;11.77;;;5.45;;
29576;SDS011;16509;53.862;10.672;2023-02-22T09:52:17;11.57;;;5.13;;
29576;SDS011;16509;53.862;10.672;2023-02-22T09:54:47;19.17;;;5.82;;
29576;SDS011;16509;53.862;10.672;2023-02-22T09:57:19;15.48;;;4.93;;
29576;SDS011;16509;53.862;10.672;2023-02-22T10:00:20;15.50;;;5.50;;
29576;SDS011;16509;53.862;10.672;2023-02-22T10:02:47;14.30;;;4.63;;
29576;SDS011;16509;53.862;10.672;2023-02-22T10:05:28;11.85;;;4.78;;
29576;SDS011;16509;53.862;10.672;2023-02-22T10:08:01;17.00;;;5.32;;
29576;SDS011;16509;53.862;10.672;2023-02-22T10:10:31;13.48;;;5.80;;
29576;SDS011;16509;53.862;10.672;2023-02-22T10:12:59;18.55;;;6.05;;
29576;SDS011;16509;53.862;10.672;2023-02-22T10:15:43;17.77;;;6.05;;
29576;SDS011;16509;53.862;10.672;2023-02-22T10:23:31;13.55;;;6.05;;
29576;SDS011;16509;53.862;10.672;2023-02-22T10:26:12;15.45;;;6.22;;
29576;SDS011;16509;53.862;10.672;2023-02-22T10:28:58;17.70;;;6.22;;
29576;SDS011;16509;53.862;10.672;2023-02-22T10:31:30;13.70;;;6.40;;
29576;SDS011;16509;53.862;10.672;2023-02-22T10:34:00;20.65;;;6.85;;
29576;SDS011;16509;53.862;10.672;2023-02-22T10:36:31;20.65;;;6.40;;
29576;SDS011;16509;53.862;10.672;2023-02-22T10:39:40;16.30;;;6.35;;
29576;SDS011;16509;53.862;10.672;2023-02-22T10:42:00;14.15;;;5.75;;
29576;SDS011;16509;53.862;10.672;2023-02-22T10:44:36;17.88;;;6.07;;
29576;SDS011;16509;53.862;10.672;2023-02-22T10:47:10;14.88;;;5.47;;
29576;SDS011;16509;53.862;10.672;2023-02-22T10:49:49;14.82;;;5.75;;
29576;SDS011;16509;53.862;10.672;2023-02-22T10:52:27;14.25;;;5.72;;
29576;SDS011;16509;53.862;10.672;2023-02-22T10:54:55;21.35;;;5.13;;
29576;SDS011;16509;53.862;10.672;2023-02-22T10:57:23;12.23;;;5.15;;
29576;SDS011;16509;53.862;10.672;2023-02-22T10:59:50;12.40;;;4.13;;
29576;SDS011;16509;53.862;10.672;2023-02-22T11:02:22;14.48;;;5.43;;
29576;SDS011;16509;53.862;10.672;2023-02-22T11:04:52;8.15;;;3.92;;
29576;SDS011;16509;53.862;10.672;2023-02-22T11:07:26;15.40;;;4.55;;
29576;SDS011;16509;53.862;10.672;2023-02-22T11:09:54;16.42;;;4.43;;
29576;SDS011;16509;53.862;10.672;2023-02-22T11:12:31;12.27;;;5.10;;
29576;SDS011;16509;53.862;10.672;2023-02-22T11:17:52;9.13;;;3.80;;
29576;SDS011;16509;53.862;10.672;2023-02-22T11:20:30;8.15;;;4.05;;
29576;SDS011;16509;53.862;10.672;2023-02-22T11:22:59;9.23;;;4.78;;
29576;SDS011;16509;53.862;10.672;2023-02-22T11:25:27;9.02;;;4.20;;
29576;SDS011;16509;53.862;10.672;2023-02-22T11:27:55;11.25;;;4.25;;
29576;SDS011;16509;53.862;10.672;2023-02-22T11:30:31;14.02;;;4.75;;
29576;SDS011;16509;53.862;10.672;2023-02-22T11:33:42;9.77;;;4.45;;
29576;SDS011;16509;53.862;10.672;2023-02-22T11:35:54;10.23;;;4.00;;
29576;SDS011;16509;53.862;10.672;2023-02-22T11:38:31;7.63;;;4.00;;
29576;SDS011;16509;53.862;10.672;2023-02-22T11:43:30;9.05;;;3.78;;
29576;SDS011;16509;53.862;10.672;2023-02-22T11:46:03;10.05;;;3.97;;
29576;SDS011;16509;53.862;10.672;2023-02-22T11:48:31;7.25;;;3.35;;
29576;SDS011;16509;53.862;10.672;2023-02-22T11:53:41;7.32;;;4.20;;
29576;SDS011;16509;53.862;10.672;2023-02-22T11:56:28;4.72;;;3.20;;
29576;SDS011;16509;53.862;10.672;2023-02-22T12:01:46;6.93;;;3.13;;
29576;SDS011;16509;53.862;10.672;2023-02-22T12:06:58;8.02;;;3.15;;
29576;SDS011;16509;53.862;10.672;2023-02-22T12:09:40;9.43;;;3.58;;
29576;SDS011;16509;53.862;10.672;2023-02-22T12:20:07;7.10;;;2.30;;
29576;SDS011;16509;53.862;10.672;2023-02-22T12:22:51;5.72;;;2.65;;
29576;SDS011;16509;53.862;10.672;2023-02-22T12:28:01;5.78;;;2.55;;
29576;SDS011;16509;53.862;10.672;2023-02-22T12:30:32;7.75;;;2.92;;
29576;SDS011;16509;53.862;10.672;2023-02-22T12:33:10;10.80;;;2.85;;
29576;SDS011;16509;53.862;10.672;2023-02-22T12:35:47;8.88;;;3.17;;
29576;SDS011;16509;53.862;10.672;2023-02-22T12:40:52;9.75;;;3.53;;
29576;SDS011;16509;53.862;10.672;2023-02-22T12:43:23;12.00;;;4.63;;
29576;SDS011;16509;53.862;10.672;2023-02-22T12:48:21;6.88;;;3.60;;
29576;SDS011;16509;53.862;10.672;2023-02-22T12:50:51;7.90;;;3.97;;
29576;SDS011;16509;53.862;10.672;2023-02-22T12:55:59;6.45;;;3.72;;
29576;SDS011;16509;53.862;10.672;2023-02-22T12:58:50;10.00;;;4.13;;
29576;SDS011;16509;53.862;10.672;2023-02-22T13:01:17;7.25;;;3.63;;
29576;SDS011;16509;53.862;10.672;2023-02-22T13:03:45;11.80;;;3.63;;
29576;SDS011;16509;53.862;10.672;2023-02-22T13:09:01;7.32;;;3.75;;
29576;SDS011;16509;53.862;10.672;2023-02-22T13:14:20;6.18;;;3.28;;
29576;SDS011;16509;53.862;10.672;2023-02-22T13:22:08;9.27;;;4.10;;
29576;SDS011;16509;53.862;10.672;2023-02-22T13:27:07;8.68;;;3.35;;
29576;SDS011;16509;53.862;10.672;2023-02-22T13:29:38;14.63;;;4.47;;
29576;SDS011;16509;53.862;10.672;2023-02-22T13:42:38;10.10;;;3.70;;
29576;SDS011;16509;53.862;10.672;2023-02-22T13:47:46;7.10;;;3.90;;
29576;SDS011;16509;53.862;10.672;2023-02-22T13:52:47;10.68;;;4.55;;
29576;SDS011;16509;53.862;10.672;2023-02-22T13:55:18;8.48;;;4.40;;
29576;SDS011;16509;53.862;10.672;2023-02-22T13:57:45;6.10;;;3.30;;
29576;SDS011;16509;53.862;10.672;2023-02-22T14:08:13;8.27;;;4.18;;
29576;SDS011;16509;53.862;10.672;2023-02-22T14:10:56;9.32;;;3.72;;
29576;SDS011;16509;53.862;10.672;2023-02-22T14:13:26;8.57;;;3.67;;
29576;SDS011;16509;53.862;10.672;2023-02-22T14:18:28;17.45;;;4.47;;
29576;SDS011;16509;53.862;10.672;2023-02-22T14:21:08;8.85;;;4.00;;
29576;SDS011;16509;53.862;10.672;2023-02-22T14:23:36;10.85;;;3.70;;
29576;SDS011;16509;53.862;10.672;2023-02-22T14:26:15;10.75;;;4.30;;
29576;SDS011;16509;53.862;10.672;2023-02-22T14:28:49;8.75;;;4.20;;
29576;SDS011;16509;53.862;10.672;2023-02-22T14:31:17;10.18;;;4.57;;
29576;SDS011;16509;53.862;10.672;2023-02-22T14:33:58;10.35;;;4.22;;
29576;SDS011;16509;53.862;10.672;2023-02-22T14:36:27;10.52;;;4.60;;
29576;SDS011;16509;53.862;10.672;2023-02-22T14:38:56;13.77;;;5.15;;
29576;SDS011;16509;53.862;10.672;2023-02-22T14:41:24;10.82;;;4.00;;
29576;SDS011;16509;53.862;10.672;2023-02-22T14:43:53;13.95;;;4.95;;
29576;SDS011;16509;53.862;10.672;2023-02-22T14:46:21;11.00;;;4.32;;
29576;SDS011;16509;53.862;10.672;2023-02-22T14:48:48;10.32;;;4.18;;
29576;SDS011;16509;53.862;10.672;2023-02-22T14:51:28;10.23;;;4.65;;
29576;SDS011;16509;53.862;10.672;2023-02-22T14:56:41;11.70;;;4.13;;
29576;SDS011;16509;53.862;10.672;2023-02-22T14:59:18;14.77;;;5.20;;
29576;SDS011;16509;53.862;10.672;2023-02-22T15:01:45;13.88;;;4.50;;
29576;SDS011;16509;53.862;10.672;2023-02-22T15:04:26;15.48;;;5.63;;
29576;SDS011;16509;53.862;10.672;2023-02-22T15:06:53;12.77;;;4.57;;
29576;SDS011;16509;53.862;10.672;2023-02-22T15:09:30;11.85;;;4.03;;
29576;SDS011;16509;53.862;10.672;2023-02-22T15:14:29;16.67;;;5.05;;
29576;SDS011;16509;53.862;10.672;2023-02-22T15:16:58;10.40;;;4.38;;
29576;SDS011;16509;53.862;10.672;2023-02-22T15:19:26;12.00;;;4.18;;
29576;SDS011;16509;53.862;10.672;2023-02-22T15:21:53;13.05;;;4.70;;
29576;SDS011;16509;53.862;10.672;2023-02-22T15:24:23;10.80;;;3.92;;
29576;SDS011;16509;53.862;10.672;2023-02-22T15:26:50;11.82;;;4.28;;
29576;SDS011;16509;53.862;10.672;2023-02-22T15:29:21;12.85;;;5.03;;
29576;SDS011;16509;53.862;10.672;2023-02-22T15:31:48;12.98;;;4.22;;
29576;SDS011;16509;53.862;10.672;2023-02-22T15:36:44;15.40;;;4.90;;
29576;SDS011;16509;53.862;10.672;2023-02-22T15:39:24;10.60;;;4.13;;
29576;SDS011;16509;53.862;10.672;2023-02-22T15:44:36;12.10;;;4.50;;
29576;SDS011;16509;53.862;10.672;2023-02-22T15:47:03;12.77;;;4.60;;
29576;SDS011;16509;53.862;10.672;2023-02-22T15:49:29;14.65;;;4.70;;
29576;SDS011;16509;53.862;10.672;2023-02-22T15:52:08;16.07;;;4.70;;
29576;SDS011;16509;53.862;10.672;2023-02-22T15:54:38;15.60;;;4.93;;
29576;SDS011;16509;53.862;10.672;2023-02-22T15:57:05;14.13;;;4.60;;
29576;SDS011;16509;53.862;10.672;2023-02-22T15:59:31;8.52;;;3.95;;
29576;SDS011;16509;53.862;10.672;2023-02-22T16:02:04;14.13;;;4.50;;
29576;SDS011;16509;53.862;10.672;2023-02-22T16:04:30;12.88;;;3.88;;
29576;SDS011;16509;53.862;10.672;2023-02-22T16:07:07;10.18;;;4.35;;
29576;SDS011;16509;53.862;10.672;2023-02-22T16:09:44;10.32;;;4.50;;
29576;SDS011;16509;53.862;10.672;2023-02-22T16:12:22;10.93;;;4.32;;
29576;SDS011;16509;53.862;10.672;2023-02-22T16:14:48;14.30;;;4.30;;
29576;SDS011;16509;53.862;10.672;2023-02-22T16:19:48;8.68;;;3.78;;
29576;SDS011;16509;53.862;10.672;2023-02-22T16:22:48;15.13;;;4.60;;
29576;SDS011;16509;53.862;10.672;2023-02-22T16:27:53;10.80;;;3.70;;
29576;SDS011;16509;53.862;10.672;2023-02-22T16:30:28;9.65;;;3.40;;
29576;SDS011;16509;53.862;10.672;2023-02-22T16:32:56;8.10;;;3.42;;
29576;SDS011;16509;53.862;10.672;2023-02-22T16:35:26;14.98;;;4.50;;
29576;SDS011;16509;53.862;10.672;2023-02-22T16:38:01;13.50;;;3.88;;
29576;SDS011;16509;53.862;10.672;2023-02-22T16:42:56;9.32;;;3.22;;
29576;SDS011;16509;53.862;10.672;2023-02-22T16:45:22;13.88;;;4.20;;
29576;SDS011;16509;53.862;10.672;2023-02-22T16:47:49;8.23;;;3.80;;
29576;SDS011;16509;53.862;10.672;2023-02-22T16:50:17;10.85;;;3.97;;
29576;SDS011;16509;53.862;10.672;2023-02-22T16:52:43;18.70;;;4.40;;
29576;SDS011;16509;53.862;10.672;2023-02-22T16:55:13;12.10;;;4.13;;
29576;SDS011;16509;53.862;10.672;2023-02-22T16:57:40;13.70;;;4.35;;
29576;SDS011;16509;53.862;10.672;2023-02-22T17:00:10;12.15;;;3.50;;